createdAt,value
2019-03-18T00:04:54.505Z,34
2019-03-18T00:09:54.439Z,38
2019-03-18T00:15:02.184Z,35
2019-03-18T00:19:54.444Z,34
2019-03-18T00:24:54.422Z,33
2019-03-18T00:29:54.456Z,35
2019-03-18T00:34:54.434Z,33
2019-03-18T00:39:54.439Z,35
2019-03-18T00:44:54.416Z,36
2019-03-18T00:49:54.410Z,36
2019-03-18T00:54:54.435Z,37
2019-03-18T00:59:54.423Z,37
2019-03-18T01:04:54.403Z,34
2019-03-18T01:09:54.407Z,35
2019-03-18T01:14:54.394Z,35
2019-03-18T01:19:54.397Z,35
2019-03-18T01:24:54.369Z,33
2019-03-18T01:29:54.382Z,36
2019-03-18T01:34:54.393Z,36
2019-03-18T01:39:54.371Z,32
2019-03-18T01:44:54.347Z,36
2019-03-18T01:49:54.367Z,35
2019-03-18T01:54:54.372Z,35
2019-03-18T01:59:54.333Z,33
2019-03-18T02:04:54.330Z,33
2019-03-18T02:09:54.433Z,34
2019-03-18T02:14:54.346Z,32
2019-03-18T02:19:54.342Z,32
2019-03-18T02:24:54.358Z,33
2019-03-18T02:29:54.289Z,31
2019-03-18T02:34:54.324Z,32
2019-03-18T02:39:54.350Z,32
2019-03-18T02:44:54.294Z,35
2019-03-18T02:49:54.312Z,33
2019-03-18T02:54:57.300Z,32
2019-03-18T02:59:54.291Z,29
2019-03-18T03:04:54.270Z,30
2019-03-18T03:09:54.259Z,30
2019-03-18T03:14:54.286Z,30
2019-03-18T03:19:54.339Z,32
2019-03-18T03:24:54.271Z,29
2019-03-18T03:29:54.264Z,29
2019-03-18T03:34:54.217Z,30
2019-03-18T03:39:54.272Z,30
2019-03-18T03:44:54.258Z,28
2019-03-18T03:49:54.264Z,28
2019-03-18T03:54:54.266Z,26
2019-03-18T03:59:54.217Z,28
2019-03-18T04:04:55.315Z,27
2019-03-18T04:09:54.186Z,28
2019-03-18T04:14:54.226Z,27
2019-03-18T04:19:54.232Z,24
2019-03-18T04:24:54.214Z,28
2019-03-18T04:29:54.160Z,27
2019-03-18T04:34:54.191Z,26
2019-03-18T04:39:54.194Z,29
2019-03-18T04:44:54.160Z,24
2019-03-18T04:49:54.172Z,26
2019-03-18T04:54:54.149Z,27
2019-03-18T04:59:54.137Z,25
2019-03-18T05:04:54.175Z,28
2019-03-18T05:09:54.131Z,28
2019-03-18T05:14:54.164Z,25
2019-03-18T05:19:54.146Z,26
2019-03-18T05:24:54.106Z,28
2019-03-18T05:29:54.100Z,28
2019-03-18T05:34:54.113Z,29
2019-03-18T05:39:54.063Z,28
2019-03-18T05:44:54.118Z,23
2019-03-18T05:49:54.229Z,22
2019-03-18T05:54:54.064Z,30
2019-03-18T05:59:54.095Z,25
2019-03-18T06:04:54.078Z,31
2019-03-18T06:09:54.066Z,31
2019-03-18T06:14:54.109Z,29
2019-03-18T06:19:54.080Z,28
2019-03-18T06:24:54.064Z,32
2019-03-18T06:29:54.042Z,29
2019-03-18T06:34:54.044Z,28
2019-03-18T06:39:54.053Z,34
2019-03-18T06:44:54.053Z,30
2019-03-18T06:49:54.032Z,27
2019-03-18T06:54:55.265Z,29
2019-03-18T06:59:54.026Z,27
2019-03-18T07:04:54.017Z,24
2019-03-18T07:09:54.032Z,27
2019-03-18T07:14:54.013Z,27
2019-03-18T07:19:53.992Z,20
2019-03-18T07:24:53.981Z,24
2019-03-18T07:29:53.949Z,23
2019-03-18T07:34:53.977Z,25
2019-03-18T07:39:54.055Z,18
2019-03-18T07:44:53.964Z,20
2019-03-18T07:49:53.945Z,22
2019-03-18T07:54:53.940Z,19
2019-03-18T07:59:53.949Z,20
2019-03-18T08:04:53.913Z,16
2019-03-18T08:09:53.931Z,17
2019-03-18T08:14:53.926Z,18
2019-03-18T08:19:53.905Z,16
2019-03-18T08:24:53.921Z,15
2019-03-18T08:29:53.940Z,20
2019-03-18T08:34:53.995Z,16
2019-03-18T08:39:53.919Z,17
2019-03-18T08:44:53.896Z,17
2019-03-18T08:49:53.876Z,17
2019-03-18T08:54:53.911Z,15
2019-03-18T08:59:53.891Z,15
2019-03-18T09:04:53.870Z,17
2019-03-18T09:09:53.908Z,17
2019-03-18T09:14:53.877Z,19
2019-03-18T09:19:53.878Z,17
2019-03-18T09:24:53.872Z,17
2019-03-18T09:29:53.857Z,17
2019-03-18T09:34:54.977Z,17
2019-03-18T09:39:53.857Z,17
2019-03-18T09:44:53.840Z,18
2019-03-18T09:49:53.799Z,17
2019-03-18T09:54:53.852Z,19
2019-03-18T09:59:53.843Z,18
2019-03-18T10:04:53.796Z,18
2019-03-18T10:09:53.833Z,16
2019-03-18T10:14:53.871Z,17
2019-03-18T10:19:53.873Z,18
2019-03-18T10:24:53.845Z,15
2019-03-18T10:29:53.782Z,16
2019-03-18T10:34:53.762Z,15
2019-03-18T10:39:53.809Z,19
2019-03-18T10:44:53.772Z,14
2019-03-18T10:49:53.747Z,14
2019-03-18T10:54:53.819Z,14
2019-03-18T10:59:53.742Z,13
2019-03-18T11:04:53.790Z,15
2019-03-18T11:09:53.723Z,16
2019-03-18T11:14:53.737Z,15
2019-03-18T11:19:59.012Z,14
2019-03-18T11:24:53.738Z,16
2019-03-18T11:29:53.739Z,16
2019-03-18T11:34:53.770Z,15
2019-03-18T11:39:53.741Z,13
2019-03-18T11:44:53.775Z,12
2019-03-18T11:49:53.751Z,14
2019-03-18T11:54:53.738Z,15
2019-03-18T11:59:53.688Z,12
2019-03-18T12:04:53.710Z,12
2019-03-18T12:09:53.701Z,14
2019-03-18T12:14:53.691Z,13
2019-03-18T12:19:53.717Z,12
2019-03-18T12:24:53.769Z,12
2019-03-18T12:29:53.677Z,14
2019-03-18T12:34:53.694Z,15
2019-03-18T12:39:53.682Z,16
2019-03-18T12:44:53.683Z,16
2019-03-18T12:49:53.697Z,16
2019-03-18T12:54:53.653Z,16
2019-03-18T12:59:53.655Z,17
2019-03-18T13:04:53.668Z,20
2019-03-18T13:09:53.668Z,15
2019-03-18T13:14:53.637Z,18
2019-03-18T13:19:53.636Z,18
2019-03-18T13:24:53.651Z,17
2019-03-18T13:29:53.645Z,16
2019-03-18T13:34:53.662Z,17
2019-03-18T13:39:53.622Z,17
2019-03-18T13:44:53.638Z,15
2019-03-18T13:49:53.625Z,16
2019-03-18T13:54:53.635Z,16
2019-03-18T13:59:53.604Z,18
2019-03-18T14:04:53.611Z,16
2019-03-18T14:09:53.620Z,13
2019-03-18T14:14:53.614Z,18
2019-03-18T14:19:54.352Z,18
2019-03-18T14:24:54.356Z,18
2019-03-18T14:29:54.441Z,16
2019-03-18T14:34:54.353Z,19
2019-03-18T14:39:54.345Z,17
2019-03-18T14:44:54.399Z,18
2019-03-18T14:49:54.317Z,19
2019-03-18T14:54:54.312Z,22
2019-03-18T14:59:54.370Z,19
2019-03-18T15:04:54.335Z,20
2019-03-18T15:09:54.328Z,18
2019-03-18T15:14:54.333Z,19
2019-03-18T15:19:54.302Z,23
2019-03-18T15:24:54.285Z,20
2019-03-18T15:29:54.324Z,21
2019-03-18T15:34:54.288Z,22
2019-03-18T15:39:54.310Z,20
2019-03-18T15:44:54.256Z,20
2019-03-18T15:49:54.323Z,21
2019-03-18T15:54:54.544Z,21
2019-03-18T15:59:54.301Z,20
2019-03-18T16:04:54.270Z,20
2019-03-18T16:09:54.289Z,25
2019-03-18T16:14:54.367Z,23
2019-03-18T16:19:54.270Z,25
2019-03-18T16:24:54.234Z,25
2019-03-18T16:29:54.321Z,31
2019-03-18T16:34:54.237Z,27
2019-03-18T16:39:54.270Z,31
2019-03-18T16:44:54.220Z,25
2019-03-18T16:49:54.222Z,32
2019-03-18T16:54:54.184Z,27
2019-03-18T16:59:54.257Z,29
2019-03-18T17:04:54.221Z,28
2019-03-18T17:09:54.184Z,28
2019-03-18T17:14:54.206Z,30
2019-03-18T17:19:54.207Z,29
2019-03-18T17:24:54.165Z,31
2019-03-18T17:29:54.190Z,30
2019-03-18T17:34:54.188Z,30
2019-03-18T17:39:54.191Z,29
2019-03-18T17:44:54.225Z,30
2019-03-18T17:49:54.173Z,30
2019-03-18T17:54:54.167Z,29
2019-03-18T17:59:54.165Z,31
2019-03-18T18:05:03.743Z,29
2019-03-18T18:09:54.170Z,29
2019-03-18T18:14:54.113Z,30
2019-03-18T18:19:54.152Z,27
2019-03-18T18:24:54.137Z,25
2019-03-18T18:29:54.101Z,26
2019-03-18T18:34:54.189Z,26
2019-03-18T18:39:54.087Z,21
2019-03-18T18:44:54.123Z,23
2019-03-18T18:49:54.104Z,22
2019-03-18T18:54:54.162Z,19
2019-03-18T18:59:54.073Z,22
2019-03-18T19:04:54.136Z,21
2019-03-18T19:09:54.107Z,18
2019-03-18T19:14:54.060Z,17
2019-03-18T19:19:56.782Z,18
2019-03-18T19:24:56.785Z,21
2019-03-18T19:29:56.747Z,21
2019-03-18T19:34:56.769Z,19
2019-03-18T19:44:58.193Z,16
2019-03-18T19:49:15.933Z,17
2019-03-18T19:54:15.919Z,19
2019-03-18T19:59:15.912Z,17
2019-03-18T20:04:15.919Z,19
2019-03-18T20:09:16.118Z,16
2019-03-18T20:14:15.878Z,19
2019-03-18T20:19:15.924Z,16
2019-03-18T20:24:15.868Z,17
2019-03-18T20:29:15.870Z,14
2019-03-18T20:34:15.930Z,13
2019-03-18T20:39:15.872Z,15
2019-03-18T20:44:15.881Z,15
2019-03-18T20:49:17.168Z,15
2019-03-18T20:54:15.872Z,16
2019-03-18T20:59:15.861Z,16
2019-03-18T21:04:15.879Z,16
2019-03-18T21:09:15.940Z,16
2019-03-18T21:14:15.937Z,13
2019-03-18T21:19:15.879Z,17
2019-03-18T21:24:23.859Z,17
2019-03-18T21:29:15.825Z,16
2019-03-18T21:34:15.810Z,15
2019-03-18T21:39:18.242Z,16
2019-03-18T21:44:15.852Z,16
2019-03-18T21:49:15.818Z,15
2019-03-18T21:54:15.770Z,16
2019-03-18T21:59:15.813Z,18
2019-03-18T22:04:15.789Z,20
2019-03-18T22:09:15.824Z,20
2019-03-18T22:14:15.761Z,18
2019-03-18T22:19:15.994Z,20
2019-03-18T22:24:15.772Z,21
2019-03-18T22:29:15.745Z,18
2019-03-18T22:34:15.772Z,19
2019-03-18T22:39:15.768Z,16
2019-03-18T22:44:15.760Z,17
2019-03-18T22:49:15.741Z,19
2019-03-18T22:54:15.731Z,16
2019-03-18T22:59:15.730Z,16
2019-03-18T23:04:15.723Z,16
2019-03-18T23:09:15.713Z,19
2019-03-18T23:14:15.733Z,19
2019-03-18T23:19:15.706Z,16
2019-03-18T23:24:15.713Z,17
2019-03-18T23:29:15.705Z,15
2019-03-18T23:34:15.724Z,18
2019-03-18T23:39:15.731Z,16
2019-03-18T23:44:15.692Z,15
2019-03-18T23:49:15.694Z,20
2019-03-18T23:54:15.653Z,19
2019-03-18T23:59:16.708Z,17
